Time;durP1;ratioP1;P1;durP2;ratioP2;P2;SDS_P1;SDS_P2;PMS_P1;PMS_P2;Temp;Humidity;BMP_temperature;BMP_pressure;BME280_temperature;BME280_humidity;BME280_pressure;Samples;Min_cycle;Max_cycle;Signal;HPM_P1;HPM_P2
2023/04/13 00:02:24;;;;;;;69.07;47.10;;;;;;;;;;4993624;28;20507;-75
2023/04/13 00:04:50;;;;;;;59.35;42.70;;;;;;;;;;4995129;28;20069;-77
2023/04/13 00:07:16;;;;;;;67.88;49.38;;;;;;;;;;4995890;28;20022;-74
2023/04/13 00:09:44;;;;;;;57.00;40.88;;;;;;;;;;5009943;28;20360;-75
2023/04/13 00:12:09;;;;;;;54.72;39.42;;;;;;;;;;5006596;28;20053;-76
2023/04/13 00:14:35;;;;;;;52.75;38.50;;;;;;;;;;4995032;28;20026;-75
2023/04/13 00:17:01;;;;;;;49.22;37.42;;;;;;;;;;4995939;28;20030;-74
2023/04/13 00:19:27;;;;;;;48.83;35.67;;;;;;;;;;4992966;28;20026;-74
2023/04/13 00:21:53;;;;;;;65.43;43.67;;;;;;;;;;4993435;28;20457;-76
2023/04/13 00:24:19;;;;;;;160.65;84.57;;;;;;;;;;4992238;28;20014;-74
2023/04/13 00:26:45;;;;;;;65.65;40.83;;;;;;;;;;4991967;28;20022;-75
2023/04/13 00:29:10;;;;;;;52.08;35.65;;;;;;;;;;4994544;28;20030;-75
2023/04/13 00:31:36;;;;;;;47.10;34.10;;;;;;;;;;4993157;28;20422;-76
2023/04/13 00:34:02;;;;;;;75.60;43.53;;;;;;;;;;4994706;28;20080;-74
2023/04/13 00:36:28;;;;;;;190.43;82.68;;;;;;;;;;4990459;28;20058;-77
2023/04/13 00:38:56;;;;;;;97.65;54.83;;;;;;;;;;4994044;28;20028;-75
2023/04/13 00:41:21;;;;;;;88.40;52.20;;;;;;;;;;4993338;28;20039;-75
2023/04/13 00:43:47;;;;;;;76.22;49.08;;;;;;;;;;4993595;28;20026;-75
2023/04/13 00:46:15;;;;;;;59.67;42.22;;;;;;;;;;4990911;28;20034;-74
2023/04/13 00:48:40;;;;;;;53.58;36.85;;;;;;;;;;4994374;28;20112;-76
2023/04/13 00:51:06;;;;;;;65.10;42.22;;;;;;;;;;4990792;28;20080;-75
2023/04/13 00:53:33;;;;;;;60.50;38.63;;;;;;;;;;4993994;28;20142;-74
2023/04/13 00:55:58;;;;;;;54.38;38.35;;;;;;;;;;4994065;28;20109;-74
2023/04/13 00:58:26;;;;;;;42.53;28.90;;;;;;;;;;4992863;28;20046;-74
2023/04/13 01:00:51;;;;;;;54.28;34.17;;;;;;;;;;4995811;28;20039;-77
2023/04/13 01:03:17;;;;;;;34.08;23.58;;;;;;;;;;4992661;28;20099;-75
2023/04/13 01:05:49;;;;;;;35.55;25.48;;;;;;;;;;4989838;28;20163;-74
2023/04/13 01:08:17;;;;;;;48.53;32.53;;;;;;;;;;4991486;28;20025;-74
2023/04/13 01:10:51;;;;;;;45.15;30.15;;;;;;;;;;4996310;28;20026;-74
2023/04/13 01:13:23;;;;;;;40.88;27.98;;;;;;;;;;4991120;28;20038;-75
2023/04/13 01:16:01;;;;;;;27.83;20.15;;;;;;;;;;4992945;28;20075;-76
2023/04/13 01:18:27;;;;;;;60.70;26.27;;;;;;;;;;4992564;28;20030;-75
2023/04/13 01:20:53;;;;;;;41.38;25.15;;;;;;;;;;4992274;28;20033;-74
2023/04/13 01:23:26;;;;;;;40.20;27.90;;;;;;;;;;5005226;28;20026;-77
2023/04/13 01:26:05;;;;;;;42.03;28.35;;;;;;;;;;4996373;28;20029;-75
2023/04/13 01:28:32;;;;;;;43.35;29.73;;;;;;;;;;4991846;28;20041;-75
2023/04/13 01:31:00;;;;;;;42.95;28.42;;;;;;;;;;5000470;28;20452;-74
2023/04/13 01:33:29;;;;;;;45.20;30.63;;;;;;;;;;4994080;28;20030;-74
2023/04/13 01:35:55;;;;;;;56.85;41.45;;;;;;;;;;4990055;28;20026;-75
2023/04/13 01:38:26;;;;;;;44.25;31.88;;;;;;;;;;4992260;28;20030;-74
2023/04/13 01:40:51;;;;;;;43.75;29.45;;;;;;;;;;4992774;28;20030;-74
2023/04/13 01:43:18;;;;;;;43.45;28.27;;;;;;;;;;4995910;28;20056;-75
2023/04/13 01:45:50;;;;;;;48.58;29.13;;;;;;;;;;4991972;28;20030;-74
2023/04/13 01:48:20;;;;;;;47.95;31.52;;;;;;;;;;4989040;28;20065;-74
2023/04/13 01:50:56;;;;;;;59.25;40.70;;;;;;;;;;4994135;28;20033;-74
2023/04/13 01:53:24;;;;;;;56.28;37.45;;;;;;;;;;4994307;28;20045;-74
2023/04/13 01:55:50;;;;;;;41.95;28.50;;;;;;;;;;4994803;28;20084;-74
2023/04/13 01:58:17;;;;;;;40.55;26.65;;;;;;;;;;4986134;28;20426;-74
2023/04/13 02:00:43;;;;;;;36.03;24.05;;;;;;;;;;4989479;28;20117;-74
2023/04/13 02:03:11;;;;;;;39.10;26.92;;;;;;;;;;4992847;28;20112;-73
2023/04/13 02:05:36;;;;;;;42.63;30.05;;;;;;;;;;4991138;28;20076;-75
2023/04/13 02:08:05;;;;;;;101.50;56.03;;;;;;;;;;4983120;28;20449;-74
2023/04/13 02:10:31;;;;;;;54.58;32.88;;;;;;;;;;4991940;28;20466;-73
2023/04/13 02:12:56;;;;;;;39.13;27.25;;;;;;;;;;4991794;28;20034;-74
2023/04/13 02:15:22;;;;;;;112.55;51.03;;;;;;;;;;4991597;28;20129;-74
2023/04/13 02:17:47;;;;;;;209.90;82.45;;;;;;;;;;4989331;28;20116;-73
2023/04/13 02:20:12;;;;;;;62.63;33.55;;;;;;;;;;5010671;28;20034;-74
2023/04/13 02:22:40;;;;;;;44.10;26.92;;;;;;;;;;4996045;28;20492;-74
2023/04/13 02:25:07;;;;;;;34.33;23.23;;;;;;;;;;4996697;28;20026;-73
2023/04/13 02:27:34;;;;;;;36.90;23.63;;;;;;;;;;4998945;28;20053;-74
2023/04/13 02:30:00;;;;;;;76.18;40.03;;;;;;;;;;4999175;28;20033;-73
2023/04/13 02:32:25;;;;;;;52.00;30.58;;;;;;;;;;4989871;28;20486;-74
2023/04/13 02:34:52;;;;;;;50.17;29.48;;;;;;;;;;4995554;28;20061;-73
2023/04/13 02:37:17;;;;;;;50.63;30.10;;;;;;;;;;5007235;28;20044;-74
2023/04/13 02:39:43;;;;;;;46.78;27.88;;;;;;;;;;5007138;28;20383;-73
2023/04/13 02:42:09;;;;;;;44.67;29.45;;;;;;;;;;4994951;28;20346;-75
2023/04/13 02:44:35;;;;;;;71.18;39.30;;;;;;;;;;4993886;28;20014;-74
2023/04/13 02:47:00;;;;;;;36.90;23.15;;;;;;;;;;4991251;28;20060;-75
2023/04/13 02:49:26;;;;;;;47.80;25.77;;;;;;;;;;4997243;28;20034;-76
2023/04/13 02:51:51;;;;;;;36.33;21.92;;;;;;;;;;4998079;28;20041;-75
2023/04/13 02:54:17;;;;;;;217.70;92.80;;;;;;;;;;5012869;28;20046;-74
2023/04/13 02:56:43;;;;;;;68.72;34.25;;;;;;;;;;4996168;28;20044;-74
2023/04/13 02:59:09;;;;;;;74.38;34.60;;;;;;;;;;4990381;28;20405;-77
2023/04/13 03:01:34;;;;;;;37.97;21.77;;;;;;;;;;4998290;28;20411;-75
2023/04/13 03:04:00;;;;;;;24.33;13.75;;;;;;;;;;4988102;28;20030;-75
2023/04/13 03:06:25;;;;;;;14.73;6.68;;;;;;;;;;4993089;28;20033;-74
2023/04/13 03:08:50;;;;;;;38.22;22.50;;;;;;;;;;4996225;28;20025;-75
2023/04/13 03:11:22;;;;;;;41.45;28.15;;;;;;;;;;4995767;28;21158;-74
2023/04/13 03:13:47;;;;;;;25.85;15.80;;;;;;;;;;4995250;28;20176;-75
2023/04/13 03:16:13;;;;;;;27.45;16.40;;;;;;;;;;4994942;28;20114;-74
2023/04/13 03:18:39;;;;;;;46.15;28.02;;;;;;;;;;4991696;28;20052;-74
2023/04/13 03:21:07;;;;;;;179.18;79.72;;;;;;;;;;4997545;28;20445;-74
2023/04/13 03:23:33;;;;;;;52.92;34.38;;;;;;;;;;5002448;28;20054;-73
2023/04/13 03:25:58;;;;;;;25.73;18.00;;;;;;;;;;4986252;28;20060;-74
2023/04/13 03:28:23;;;;;;;24.38;18.23;;;;;;;;;;4992835;28;20030;-73
2023/04/13 03:30:49;;;;;;;22.88;16.55;;;;;;;;;;4994667;28;20037;-74
2023/04/13 03:33:14;;;;;;;21.45;16.98;;;;;;;;;;4995006;28;20068;-72
2023/04/13 03:35:40;;;;;;;24.27;17.30;;;;;;;;;;4985091;28;20050;-75
2023/04/13 03:38:05;;;;;;;29.73;23.08;;;;;;;;;;4987608;28;20029;-74
2023/04/13 03:40:30;;;;;;;27.45;20.63;;;;;;;;;;4994208;28;20029;-76
2023/04/13 03:42:56;;;;;;;29.45;18.33;;;;;;;;;;4990563;28;20462;-75
2023/04/13 03:45:21;;;;;;;20.90;15.63;;;;;;;;;;4988267;28;20450;-74
2023/04/13 03:47:47;;;;;;;21.80;14.88;;;;;;;;;;5021568;28;20132;-77
2023/04/13 03:50:12;;;;;;;18.35;14.50;;;;;;;;;;4984265;28;20018;-74
2023/04/13 03:52:38;;;;;;;19.58;16.00;;;;;;;;;;4977894;28;20034;-74
2023/04/13 03:55:03;;;;;;;18.52;15.77;;;;;;;;;;4975438;28;20446;-74
2023/04/13 03:57:29;;;;;;;26.48;20.05;;;;;;;;;;4973922;28;20113;-77
2023/04/13 03:59:55;;;;;;;36.63;27.58;;;;;;;;;;4975455;28;20082;-74
2023/04/13 04:02:20;;;;;;;33.70;28.20;;;;;;;;;;4970912;28;20057;-73
2023/04/13 04:04:46;;;;;;;27.13;22.92;;;;;;;;;;4971005;28;20054;-73
2023/04/13 04:07:11;;;;;;;27.10;21.35;;;;;;;;;;4976002;28;20033;-73
2023/04/13 04:09:37;;;;;;;63.85;49.58;;;;;;;;;;4988835;28;20031;-73
2023/04/13 04:12:03;;;;;;;51.55;40.85;;;;;;;;;;4995995;28;20292;-77
2023/04/13 04:14:28;;;;;;;56.60;47.03;;;;;;;;;;4993799;28;20051;-73
2023/04/13 04:16:54;;;;;;;77.78;62.83;;;;;;;;;;4987019;28;20107;-75
2023/04/13 04:19:19;;;;;;;52.38;43.83;;;;;;;;;;4993249;28;20025;-73
2023/04/13 04:21:45;;;;;;;39.33;32.25;;;;;;;;;;4993962;28;20026;-74
2023/04/13 04:24:19;;;;;;;50.97;44.35;;;;;;;;;;4990919;28;20022;-72
2023/04/13 04:26:48;;;;;;;53.03;43.13;;;;;;;;;;5010494;28;20034;-72
2023/04/13 04:29:14;;;;;;;76.45;59.88;;;;;;;;;;4986755;28;20022;-71
2023/04/13 04:31:42;;;;;;;65.63;50.65;;;;;;;;;;4986365;28;20527;-72
2023/04/13 04:34:09;;;;;;;64.10;46.05;;;;;;;;;;4982342;28;20069;-74
2023/04/13 04:36:35;;;;;;;62.95;46.67;;;;;;;;;;4984816;28;20021;-76
2023/04/13 04:39:01;;;;;;;60.75;44.00;;;;;;;;;;4990568;28;20049;-73
2023/04/13 04:41:26;;;;;;;62.97;49.38;;;;;;;;;;4990105;28;20092;-75
2023/04/13 04:43:55;;;;;;;48.40;36.05;;;;;;;;;;4987060;28;20030;-75
2023/04/13 04:46:24;;;;;;;170.18;118.60;;;;;;;;;;4980084;28;20337;-72
2023/04/13 04:48:50;;;;;;;85.93;75.53;;;;;;;;;;5008336;28;20420;-72
2023/04/13 04:51:16;;;;;;;82.22;68.10;;;;;;;;;;4993033;28;20306;-75
2023/04/13 04:53:41;;;;;;;43.08;35.38;;;;;;;;;;4990881;28;20025;-74
2023/04/13 04:56:07;;;;;;;46.60;34.22;;;;;;;;;;4987609;28;20418;-73
2023/04/13 04:58:32;;;;;;;41.70;29.30;;;;;;;;;;4992377;28;20038;-73
2023/04/13 05:00:58;;;;;;;61.70;47.00;;;;;;;;;;4993263;28;20458;-74
2023/04/13 05:03:23;;;;;;;60.35;42.42;;;;;;;;;;4994858;28;20049;-71
2023/04/13 05:05:49;;;;;;;52.97;35.67;;;;;;;;;;4990698;28;20022;-72
2023/04/13 05:08:14;;;;;;;75.45;59.95;;;;;;;;;;4995682;28;20037;-72
2023/04/13 05:10:44;;;;;;;73.57;54.95;;;;;;;;;;4991855;28;20032;-71
2023/04/13 05:13:10;;;;;;;76.05;57.85;;;;;;;;;;4994231;28;20045;-71
2023/04/13 05:15:35;;;;;;;104.20;78.40;;;;;;;;;;4990997;28;20034;-71
2023/04/13 05:18:01;;;;;;;59.33;45.47;;;;;;;;;;4983458;28;20017;-72
2023/04/13 05:20:26;;;;;;;56.53;44.60;;;;;;;;;;4986620;28;20037;-72
2023/04/13 05:22:52;;;;;;;62.95;47.10;;;;;;;;;;4993029;28;20034;-73
2023/04/13 05:25:17;;;;;;;76.00;59.38;;;;;;;;;;4993284;28;20628;-72
2023/04/13 05:27:43;;;;;;;88.53;70.25;;;;;;;;;;4995716;28;20052;-72
2023/04/13 05:30:08;;;;;;;72.63;52.80;;;;;;;;;;4993567;28;20451;-72
2023/04/13 05:32:34;;;;;;;74.95;56.20;;;;;;;;;;4989900;28;20187;-72
2023/04/13 05:34:59;;;;;;;86.13;66.65;;;;;;;;;;4992722;28;20441;-72
2023/04/13 05:37:25;;;;;;;109.88;86.35;;;;;;;;;;4991853;28;20027;-71
2023/04/13 05:39:51;;;;;;;140.15;105.75;;;;;;;;;;4992544;28;20033;-72
2023/04/13 05:42:16;;;;;;;113.35;90.00;;;;;;;;;;4993188;28;20038;-71
2023/04/13 05:44:42;;;;;;;122.65;96.55;;;;;;;;;;4994335;28;20482;-73
2023/04/13 05:47:07;;;;;;;163.63;129.23;;;;;;;;;;4990399;28;20051;-71
2023/04/13 05:49:32;;;;;;;150.25;116.30;;;;;;;;;;4992204;28;20025;-71
2023/04/13 05:51:58;;;;;;;121.10;95.30;;;;;;;;;;4987971;28;20034;-72
2023/04/13 05:54:23;;;;;;;110.43;93.20;;;;;;;;;;4993764;28;20464;-71
2023/04/13 05:56:49;;;;;;;97.70;85.82;;;;;;;;;;4999168;28;21144;-72
2023/04/13 05:59:15;;;;;;;89.35;74.13;;;;;;;;;;4993874;28;20037;-72
2023/04/13 06:01:40;;;;;;;92.43;76.53;;;;;;;;;;4993029;28;20341;-72
2023/04/13 06:04:08;;;;;;;81.35;59.40;;;;;;;;;;4996780;28;20426;-75
2023/04/13 06:06:34;;;;;;;162.27;120.93;;;;;;;;;;4995827;28;20034;-72
2023/04/13 06:09:00;;;;;;;164.73;129.73;;;;;;;;;;4994151;28;20023;-72
2023/04/13 06:11:26;;;;;;;109.65;78.70;;;;;;;;;;4997848;28;20030;-73
2023/04/13 06:13:51;;;;;;;88.60;67.53;;;;;;;;;;4987548;28;20199;-76
2023/04/13 06:16:17;;;;;;;31.20;23.15;;;;;;;;;;4998332;28;20119;-74
2023/04/13 06:18:43;;;;;;;22.92;18.77;;;;;;;;;;4992260;28;20030;-74
2023/04/13 06:21:08;;;;;;;26.40;20.08;;;;;;;;;;4986333;28;20472;-74
2023/04/13 06:23:33;;;;;;;28.05;22.40;;;;;;;;;;4986195;28;20029;-73
2023/04/13 06:25:59;;;;;;;27.42;21.08;;;;;;;;;;4985973;28;20038;-73
2023/04/13 06:28:27;;;;;;;34.03;20.25;;;;;;;;;;4986078;28;20027;-73
2023/04/13 06:30:53;;;;;;;31.45;22.13;;;;;;;;;;4987387;28;20105;-72
2023/04/13 06:33:19;;;;;;;20.63;16.38;;;;;;;;;;4985674;28;20520;-72
2023/04/13 06:35:44;;;;;;;11.85;9.85;;;;;;;;;;4986518;28;20436;-73
2023/04/13 06:38:10;;;;;;;11.32;9.30;;;;;;;;;;4985934;28;20397;-73
2023/04/13 06:40:36;;;;;;;17.73;9.70;;;;;;;;;;4985872;28;20026;-74
2023/04/13 06:43:01;;;;;;;10.18;7.82;;;;;;;;;;4985817;28;20426;-74
2023/04/13 06:45:27;;;;;;;11.82;7.55;;;;;;;;;;4986621;28;20034;-71
2023/04/13 06:47:53;;;;;;;10.32;5.72;;;;;;;;;;4999377;28;20143;-72
2023/04/13 06:50:18;;;;;;;6.05;4.35;;;;;;;;;;4985344;28;20106;-72
2023/04/13 06:52:44;;;;;;;8.65;6.40;;;;;;;;;;4984839;28;20041;-72
2023/04/13 06:55:10;;;;;;;7.50;5.10;;;;;;;;;;4985245;28;20029;-73
2023/04/13 06:57:35;;;;;;;9.75;5.43;;;;;;;;;;4986814;28;20026;-71
2023/04/13 07:00:00;;;;;;;11.90;7.05;;;;;;;;;;4985446;28;20033;-71
2023/04/13 07:02:26;;;;;;;18.55;9.63;;;;;;;;;;4992883;28;21153;-74
2023/04/13 07:04:51;;;;;;;9.63;6.15;;;;;;;;;;4992950;28;20126;-72
2023/04/13 07:07:17;;;;;;;5.15;3.95;;;;;;;;;;4990771;28;20032;-73
2023/04/13 07:09:42;;;;;;;5.50;4.45;;;;;;;;;;4986128;28;20096;-73
2023/04/13 07:12:08;;;;;;;9.43;6.40;;;;;;;;;;4991502;28;20044;-72
2023/04/13 07:14:37;;;;;;;11.88;5.30;;;;;;;;;;4993709;28;20037;-75
2023/04/13 07:17:02;;;;;;;7.93;4.00;;;;;;;;;;4995131;28;20469;-74
2023/04/13 07:19:29;;;;;;;8.10;3.70;;;;;;;;;;5000137;28;20030;-73
2023/04/13 07:21:54;;;;;;;26.05;21.30;;;;;;;;;;5010976;28;20340;-72
2023/04/13 07:24:20;;;;;;;8.50;6.07;;;;;;;;;;4995192;28;20030;-75
2023/04/13 07:26:45;;;;;;;11.48;7.43;;;;;;;;;;4994762;28;20026;-73
2023/04/13 07:29:12;;;;;;;7.35;5.53;;;;;;;;;;4989189;28;20113;-72
2023/04/13 07:31:38;;;;;;;12.23;9.55;;;;;;;;;;4984766;28;20033;-73
2023/04/13 07:34:04;;;;;;;8.07;6.07;;;;;;;;;;4986802;28;20034;-74
2023/04/13 07:36:30;;;;;;;17.05;4.45;;;;;;;;;;4985850;28;20037;-76
2023/04/13 07:38:56;;;;;;;9.45;7.25;;;;;;;;;;4984974;28;20080;-74
2023/04/13 07:41:21;;;;;;;9.55;8.27;;;;;;;;;;4988402;28;20105;-74
2023/04/13 07:43:47;;;;;;;15.25;11.48;;;;;;;;;;4998709;28;20087;-73
2023/04/13 07:46:12;;;;;;;16.80;10.18;;;;;;;;;;4995189;28;20022;-73
2023/04/13 07:48:38;;;;;;;20.50;16.27;;;;;;;;;;4996432;28;20037;-73
2023/04/13 07:51:03;;;;;;;9.23;6.60;;;;;;;;;;4989633;28;20042;-75
2023/04/13 07:53:29;;;;;;;10.80;8.38;;;;;;;;;;4994457;28;20026;-75
2023/04/13 07:55:54;;;;;;;10.10;5.55;;;;;;;;;;4991926;28;20019;-73
2023/04/13 07:58:19;;;;;;;6.20;3.72;;;;;;;;;;4990912;28;20026;-73
2023/04/13 08:00:45;;;;;;;6.13;3.42;;;;;;;;;;4988065;28;20898;-74
2023/04/13 08:03:11;;;;;;;5.13;3.70;;;;;;;;;;4980288;28;20029;-73
2023/04/13 08:05:36;;;;;;;5.65;5.05;;;;;;;;;;4983874;28;21222;-75
2023/04/13 08:08:01;;;;;;;7.47;3.33;;;;;;;;;;4982402;28;20486;-74
2023/04/13 08:10:27;;;;;;;5.30;4.50;;;;;;;;;;4985198;28;20021;-72
2023/04/13 08:12:52;;;;;;;7.07;4.55;;;;;;;;;;4985337;28;20400;-75
2023/04/13 08:15:18;;;;;;;10.32;5.53;;;;;;;;;;4984213;28;20434;-75
2023/04/13 08:17:43;;;;;;;11.48;8.30;;;;;;;;;;4984063;28;20463;-73
2023/04/13 08:20:09;;;;;;;7.60;5.63;;;;;;;;;;4983495;28;20353;-74
2023/04/13 08:22:35;;;;;;;6.65;5.45;;;;;;;;;;4984928;28;20026;-73
2023/04/13 08:25:01;;;;;;;8.95;6.25;;;;;;;;;;4984663;28;20025;-73
2023/04/13 08:27:26;;;;;;;10.45;6.50;;;;;;;;;;4984372;28;20108;-73
2023/04/13 08:29:55;;;;;;;11.13;5.50;;;;;;;;;;4986055;28;20112;-75
2023/04/13 08:32:21;;;;;;;12.27;7.55;;;;;;;;;;4983974;28;20033;-74
2023/04/13 08:34:46;;;;;;;6.10;5.50;;;;;;;;;;4982964;28;20512;-74
2023/04/13 08:37:14;;;;;;;7.47;5.10;;;;;;;;;;4982861;28;20030;-74
2023/04/13 08:39:39;;;;;;;10.75;6.90;;;;;;;;;;4986927;28;20045;-73
2023/04/13 08:42:05;;;;;;;10.70;6.68;;;;;;;;;;4993352;28;20341;-75
2023/04/13 08:44:31;;;;;;;8.55;7.65;;;;;;;;;;4990328;28;20076;-74
2023/04/13 08:46:56;;;;;;;5.32;4.63;;;;;;;;;;4989993;28;20038;-74
2023/04/13 08:49:22;;;;;;;10.85;9.45;;;;;;;;;;4988593;28;20049;-75
2023/04/13 08:51:47;;;;;;;5.07;4.47;;;;;;;;;;4989180;28;20058;-75
2023/04/13 08:54:14;;;;;;;14.25;5.28;;;;;;;;;;4992395;28;20045;-74
2023/04/13 08:56:43;;;;;;;8.30;5.85;;;;;;;;;;4990218;28;20080;-74
2023/04/13 08:59:08;;;;;;;8.93;4.82;;;;;;;;;;4991849;28;20038;-74
2023/04/13 09:01:36;;;;;;;6.28;4.13;;;;;;;;;;4990771;28;20022;-75
2023/04/13 09:04:06;;;;;;;4.60;3.90;;;;;;;;;;4995870;28;20033;-75
2023/04/13 09:06:34;;;;;;;5.30;4.10;;;;;;;;;;4990783;28;20033;-74
2023/04/13 09:09:02;;;;;;;7.07;4.28;;;;;;;;;;4994792;28;20453;-74
2023/04/13 09:11:27;;;;;;;6.18;4.80;;;;;;;;;;4994098;28;20470;-75
2023/04/13 09:13:53;;;;;;;5.88;5.25;;;;;;;;;;4995559;28;20118;-77
2023/04/13 09:16:18;;;;;;;4.80;3.92;;;;;;;;;;4991306;28;20026;-74
2023/04/13 09:18:56;;;;;;;5.95;4.45;;;;;;;;;;4993733;28;20476;-74
2023/04/13 09:21:23;;;;;;;8.43;5.00;;;;;;;;;;4992812;28;20457;-75
2023/04/13 09:23:55;;;;;;;11.38;4.53;;;;;;;;;;4992088;28;20465;-73
2023/04/13 09:26:21;;;;;;;5.38;4.40;;;;;;;;;;4996178;28;20373;-74
2023/04/13 09:28:48;;;;;;;6.47;4.50;;;;;;;;;;4994321;28;20076;-75
2023/04/13 09:31:14;;;;;;;6.03;4.57;;;;;;;;;;4994166;28;20101;-77
2023/04/13 09:33:47;;;;;;;8.48;6.43;;;;;;;;;;4992917;28;20108;-76
2023/04/13 09:36:13;;;;;;;9.48;6.60;;;;;;;;;;4993548;28;20026;-74
2023/04/13 09:38:38;;;;;;;9.98;6.25;;;;;;;;;;4991529;28;20037;-74
2023/04/13 09:41:06;;;;;;;7.28;6.03;;;;;;;;;;4991811;28;20041;-74
2023/04/13 09:43:35;;;;;;;8.55;7.18;;;;;;;;;;4991665;28;20026;-75
2023/04/13 09:46:00;;;;;;;9.80;6.25;;;;;;;;;;4992785;28;20037;-76
2023/04/13 09:48:26;;;;;;;15.07;10.27;;;;;;;;;;4989923;28;20054;-74
2023/04/13 09:50:58;;;;;;;8.15;5.20;;;;;;;;;;4994217;28;20022;-75
2023/04/13 09:53:24;;;;;;;8.90;5.90;;;;;;;;;;4995710;28;20038;-74
2023/04/13 09:55:55;;;;;;;7.50;5.35;;;;;;;;;;4992810;28;20039;-75
2023/04/13 09:58:21;;;;;;;7.45;5.00;;;;;;;;;;4991069;28;20018;-76
2023/04/13 10:00:46;;;;;;;5.95;4.43;;;;;;;;;;4991708;28;20038;-75
2023/04/13 10:03:12;;;;;;;5.97;4.22;;;;;;;;;;4990530;28;20032;-75
2023/04/13 10:05:38;;;;;;;9.65;5.80;;;;;;;;;;4993613;28;20062;-75
2023/04/13 10:08:05;;;;;;;6.80;5.15;;;;;;;;;;4981679;28;20112;-74
2023/04/13 10:10:31;;;;;;;5.82;4.22;;;;;;;;;;4989848;28;20602;-75
2023/04/13 10:12:57;;;;;;;8.80;4.78;;;;;;;;;;4989403;28;20038;-75
2023/04/13 10:15:26;;;;;;;7.35;4.47;;;;;;;;;;4985599;28;20038;-76
2023/04/13 10:18:05;;;;;;;10.18;4.82;;;;;;;;;;4994277;28;20112;-75
2023/04/13 10:20:30;;;;;;;;;;;;;;;;;;4989794;28;20026;-77
2023/04/13 10:22:56;;;;;;;4.75;4.10;;;;;;;;;;4992428;28;20070;-75
2023/04/13 10:25:22;;;;;;;5.68;4.05;;;;;;;;;;4987800;28;20026;-75
2023/04/13 10:27:57;;;;;;;4.88;3.50;;;;;;;;;;4982878;28;20037;-74
2023/04/13 10:30:23;;;;;;;6.80;4.45;;;;;;;;;;4980561;28;20477;-76
2023/04/13 10:32:48;;;;;;;4.63;3.78;;;;;;;;;;5002965;28;20072;-75
2023/04/13 10:35:14;;;;;;;8.80;3.85;;;;;;;;;;4993080;28;20026;-74
2023/04/13 10:37:41;;;;;;;9.43;4.30;;;;;;;;;;4991391;28;20035;-75
2023/04/13 10:40:09;;;;;;;5.95;3.80;;;;;;;;;;4996250;28;20025;-75
2023/04/13 10:42:45;;;;;;;9.32;4.38;;;;;;;;;;4996071;28;20038;-74
2023/04/13 10:45:25;;;;;;;6.78;5.20;;;;;;;;;;4998462;28;20022;-74
2023/04/13 10:47:51;;;;;;;6.63;4.60;;;;;;;;;;4997355;28;20142;-75
2023/04/13 10:50:17;;;;;;;5.13;4.70;;;;;;;;;;4990080;28;20038;-75
2023/04/13 10:52:59;;;;;;;6.50;4.03;;;;;;;;;;4993123;28;20026;-74
2023/04/13 10:55:26;;;;;;;8.75;7.32;;;;;;;;;;4995668;28;20037;-73
2023/04/13 10:57:52;;;;;;;5.68;4.25;;;;;;;;;;4994280;28;20022;-74
2023/04/13 11:00:20;;;;;;;8.23;7.10;;;;;;;;;;4990759;28;20405;-74
2023/04/13 11:02:48;;;;;;;10.30;5.55;;;;;;;;;;4992153;28;20054;-75
2023/04/13 11:05:15;;;;;;;5.53;4.70;;;;;;;;;;4994755;28;20208;-74
2023/04/13 11:07:41;;;;;;;6.65;4.55;;;;;;;;;;4994093;28;20030;-74
2023/04/13 11:10:08;;;;;;;10.00;7.38;;;;;;;;;;4999248;28;20071;-75
2023/04/13 11:12:34;;;;;;;5.40;4.85;;;;;;;;;;4994212;28;20038;-74
2023/04/13 11:15:00;;;;;;;5.30;4.65;;;;;;;;;;4993499;28;20472;-77
2023/04/13 11:17:25;;;;;;;8.43;6.40;;;;;;;;;;4995848;28;20575;-74
2023/04/13 11:19:55;;;;;;;12.63;6.85;;;;;;;;;;4997698;28;20030;-76
2023/04/13 11:22:27;;;;;;;10.80;7.50;;;;;;;;;;4989256;28;20026;-75
2023/04/13 11:25:03;;;;;;;7.93;6.35;;;;;;;;;;4996003;28;20349;-75
2023/04/13 11:27:29;;;;;;;7.28;5.15;;;;;;;;;;4992312;28;20026;-75
2023/04/13 11:29:58;;;;;;;10.13;5.90;;;;;;;;;;4995630;28;20038;-76
2023/04/13 11:32:25;;;;;;;6.70;4.93;;;;;;;;;;4997097;28;20061;-76
2023/04/13 11:34:50;;;;;;;7.97;5.18;;;;;;;;;;4995411;28;20034;-77
2023/04/13 11:37:16;;;;;;;6.93;3.90;;;;;;;;;;4995270;28;20103;-75
2023/04/13 11:39:45;;;;;;;6.10;5.10;;;;;;;;;;4993516;28;20030;-74
2023/04/13 11:42:12;;;;;;;13.70;11.63;;;;;;;;;;4985622;28;21194;-74
2023/04/13 11:44:38;;;;;;;12.20;10.40;;;;;;;;;;4991012;28;20309;-74
2023/04/13 11:47:04;;;;;;;10.32;8.15;;;;;;;;;;4992386;28;20050;-76
2023/04/13 11:49:30;;;;;;;4.15;3.75;;;;;;;;;;4995319;28;20018;-74
2023/04/13 11:51:56;;;;;;;5.63;5.13;;;;;;;;;;4992512;28;20026;-76
2023/04/13 11:54:22;;;;;;;4.50;3.88;;;;;;;;;;4995626;28;20049;-74
2023/04/13 11:56:48;;;;;;;7.68;5.10;;;;;;;;;;4993667;28;20230;-75
2023/04/13 11:59:13;;;;;;;5.80;4.57;;;;;;;;;;4992736;28;20108;-74
2023/04/13 12:01:39;;;;;;;4.13;3.72;;;;;;;;;;4991207;28;20117;-74
2023/04/13 12:04:04;;;;;;;7.15;4.70;;;;;;;;;;4994241;28;20404;-77
2023/04/13 12:06:31;;;;;;;6.90;5.45;;;;;;;;;;4995847;28;20041;-75
2023/04/13 12:09:08;;;;;;;8.48;3.72;;;;;;;;;;4994887;28;20037;-74
2023/04/13 12:11:40;;;;;;;6.93;5.25;;;;;;;;;;4995407;28;20026;-75
2023/04/13 12:14:06;;;;;;;5.18;3.72;;;;;;;;;;4989003;28;20050;-75
2023/04/13 12:16:33;;;;;;;5.18;3.65;;;;;;;;;;4993379;28;20033;-76
2023/04/13 12:19:08;;;;;;;4.90;3.65;;;;;;;;;;4995733;28;20033;-75
2023/04/13 12:21:33;;;;;;;9.10;4.53;;;;;;;;;;4994529;28;20018;-74
2023/04/13 12:23:59;;;;;;;7.78;4.32;;;;;;;;;;4991372;28;20092;-75
2023/04/13 12:26:31;;;;;;;5.57;4.30;;;;;;;;;;4990703;28;20117;-74
2023/04/13 12:28:57;;;;;;;4.53;3.55;;;;;;;;;;4995369;28;20057;-75
2023/04/13 12:31:22;;;;;;;4.03;3.70;;;;;;;;;;4993035;28;20044;-77
2023/04/13 12:33:48;;;;;;;5.07;4.30;;;;;;;;;;4992699;28;20121;-74
2023/04/13 12:36:13;;;;;;;8.07;4.90;;;;;;;;;;4991460;28;20054;-74
2023/04/13 12:38:38;;;;;;;7.88;7.07;;;;;;;;;;5009835;28;20065;-76
2023/04/13 12:41:06;;;;;;;12.45;7.05;;;;;;;;;;4985925;28;20026;-74
2023/04/13 12:43:31;;;;;;;4.57;4.07;;;;;;;;;;4983685;28;20423;-75
2023/04/13 12:45:57;;;;;;;6.13;5.18;;;;;;;;;;4983826;28;20121;-77
2023/04/13 12:48:22;;;;;;;5.53;3.90;;;;;;;;;;4982883;28;20054;-75
2023/04/13 12:50:48;;;;;;;11.13;5.05;;;;;;;;;;4985346;28;20384;-74
2023/04/13 12:53:14;;;;;;;6.75;4.35;;;;;;;;;;4982280;28;20349;-77
2023/04/13 12:55:40;;;;;;;4.40;3.97;;;;;;;;;;4982853;28;20035;-76
2023/04/13 12:58:05;;;;;;;9.65;7.75;;;;;;;;;;4983654;28;20041;-76
2023/04/13 13:00:32;;;;;;;10.13;5.65;;;;;;;;;;4984730;28;20445;-75
2023/04/13 13:02:58;;;;;;;5.50;4.78;;;;;;;;;;4984978;28;20943;-74
2023/04/13 13:05:23;;;;;;;7.25;5.13;;;;;;;;;;4982557;28;20081;-76
2023/04/13 13:07:49;;;;;;;7.30;3.70;;;;;;;;;;4980965;28;20029;-74
2023/04/13 13:10:14;;;;;;;4.38;3.28;;;;;;;;;;4984911;28;20482;-75
2023/04/13 13:12:39;;;;;;;4.82;3.20;;;;;;;;;;4982055;28;20046;-76
2023/04/13 13:15:09;;;;;;;3.40;3.10;;;;;;;;;;4983315;28;20026;-74
2023/04/13 13:17:35;;;;;;;10.18;4.07;;;;;;;;;;4988092;28;20442;-76
2023/04/13 13:20:00;;;;;;;3.67;3.25;;;;;;;;;;4992347;28;20018;-74
2023/04/13 13:22:27;;;;;;;4.25;3.67;;;;;;;;;;4990134;28;20097;-73
2023/04/13 13:24:53;;;;;;;4.78;3.05;;;;;;;;;;4984460;28;20041;-73
2023/04/13 13:27:19;;;;;;;4.32;3.92;;;;;;;;;;4989955;28;20450;-73
2023/04/13 13:29:44;;;;;;;7.72;4.82;;;;;;;;;;4993565;28;20032;-74
2023/04/13 13:32:09;;;;;;;6.68;5.57;;;;;;;;;;4993223;28;20034;-76
2023/04/13 13:34:35;;;;;;;6.57;5.50;;;;;;;;;;4990005;28;20026;-73
2023/04/13 13:37:00;;;;;;;4.47;4.07;;;;;;;;;;4989107;28;20030;-75
2023/04/13 13:39:26;;;;;;;4.70;4.30;;;;;;;;;;4992965;28;20029;-74
2023/04/13 13:41:51;;;;;;;4.30;3.90;;;;;;;;;;4993194;28;20031;-74
2023/04/13 13:44:17;;;;;;;3.00;2.70;;;;;;;;;;4992861;28;20443;-74
2023/04/13 13:46:42;;;;;;;3.85;3.20;;;;;;;;;;4992107;28;20428;-73
2023/04/13 13:49:08;;;;;;;3.70;2.88;;;;;;;;;;4994657;28;20342;-73
2023/04/13 13:51:33;;;;;;;4.32;3.78;;;;;;;;;;4990919;28;20045;-72
2023/04/13 13:53:58;;;;;;;10.80;8.38;;;;;;;;;;4985958;28;20465;-72
2023/04/13 13:56:24;;;;;;;4.90;3.10;;;;;;;;;;4986031;28;20035;-73
2023/04/13 13:58:50;;;;;;;5.03;4.28;;;;;;;;;;4990747;28;20025;-72
2023/04/13 14:01:18;;;;;;;6.53;3.60;;;;;;;;;;4988106;28;20184;-72
2023/04/13 14:03:44;;;;;;;6.50;3.50;;;;;;;;;;4988798;28;20092;-73
2023/04/13 14:06:09;;;;;;;6.18;4.70;;;;;;;;;;4986808;28;20065;-73
2023/04/13 14:08:35;;;;;;;5.00;3.83;;;;;;;;;;4988609;28;20021;-74
2023/04/13 14:11:01;;;;;;;4.90;4.25;;;;;;;;;;4985627;28;20456;-72
2023/04/13 14:13:28;;;;;;;14.82;4.95;;;;;;;;;;4991384;28;20125;-73
2023/04/13 14:15:54;;;;;;;8.60;4.82;;;;;;;;;;4990928;28;20032;-74
2023/04/13 14:18:19;;;;;;;6.38;4.75;;;;;;;;;;4988108;28;20113;-75
2023/04/13 14:20:44;;;;;;;6.35;3.92;;;;;;;;;;4989634;28;20166;-73
2023/04/13 14:23:10;;;;;;;6.28;3.40;;;;;;;;;;4992554;28;20786;-73
2023/04/13 14:25:36;;;;;;;7.55;3.85;;;;;;;;;;4997831;28;20026;-75